Fayette, Ohio
Current Conditions -  °F | °C
As of 2:35 PM on Thursday 27 Nov 2014 (Local Time) from KUSE Reporting Station
Overcast Overcast  
Wind Chill: 22°   Ceiling: 2800
Heat Index: 32°   Visibility: 10mi
Dew Point: 25°   Wind: 14mph
Humidity: 75%   Direction: 250°WSW
Pressure: 30.18"   Gusts: NA
Location:  41.67°N, 84.33°W
Report Text: KUSE 271935Z AUTO 25012KT 10SM SCT023 BKN028 OVC045 00/M04 A3018 RMK AO2
Loading
Personal Weather Stations






























Interactive Weather Map New forecast layout! Learn more

10-Day Weather Forecast

Advertisements
Track Severe Weather on mobile